createdAt,value
2018-05-10T00:01:59.563Z,98286.72
2018-05-10T00:04:27.217Z,98278.18
2018-05-10T00:06:54.763Z,98274.58
2018-05-10T00:09:22.342Z,98274.72
2018-05-10T00:11:49.870Z,98275.53
2018-05-10T00:14:17.449Z,98266.62
2018-05-10T00:16:45.021Z,98278.09
2018-05-10T00:19:12.580Z,98268.88
2018-05-10T00:21:40.203Z,98274.72
2018-05-10T00:24:07.779Z,98279.09
2018-05-10T00:26:35.351Z,98274.09
2018-05-10T00:29:03.012Z,98268.40
2018-05-10T00:31:30.536Z,98267.92
2018-05-10T00:33:58.436Z,98266.05
2018-05-10T00:36:25.997Z,98266.23
2018-05-10T00:38:53.576Z,98269.84
2018-05-10T00:41:21.116Z,98271.73
2018-05-10T00:43:48.714Z,98266.13
2018-05-10T00:46:16.249Z,98266.62
2018-05-10T00:48:43.904Z,98274.47
2018-05-10T00:51:11.493Z,98263.56
2018-05-10T00:53:39.434Z,98266.34
2018-05-10T00:56:06.990Z,98262.77
2018-05-10T00:58:34.657Z,98264.48
2018-05-10T01:01:02.207Z,98272.92
2018-05-10T01:03:29.793Z,98269.33
2018-05-10T01:05:57.369Z,98271.10
2018-05-10T01:08:24.928Z,98273.41
2018-05-10T01:10:52.504Z,98269.33
2018-05-10T01:13:20.024Z,98265.27
2018-05-10T01:15:47.576Z,98266.30
2018-05-10T01:18:15.106Z,98261.09
2018-05-10T01:20:42.705Z,98268.98
2018-05-10T01:23:10.233Z,98265.03
2018-05-10T01:25:37.834Z,98269.48
2018-05-10T01:28:05.390Z,98271.09
2018-05-10T01:30:32.965Z,98275.14
2018-05-10T01:33:00.492Z,98267.34
2018-05-10T01:35:39.908Z,98262.20
2018-05-10T01:38:07.447Z,98259.95
2018-05-10T01:40:35.025Z,98256.06
2018-05-10T01:43:02.552Z,98263.41
2018-05-10T01:45:30.129Z,98260.47
2018-05-10T01:47:57.654Z,98260.32
2018-05-10T01:50:25.211Z,98262.23
2018-05-10T01:52:52.758Z,98263.91
2018-05-10T01:55:20.363Z,98260.08
2018-05-10T01:57:47.890Z,98261.58
2018-05-10T02:00:15.567Z,98263.55
2018-05-10T02:02:43.177Z,98258.75
2018-05-10T02:05:10.770Z,98266.73
2018-05-10T02:07:38.326Z,98274.78
2018-05-10T02:10:06.069Z,98281.56
2018-05-10T02:12:33.629Z,98284.02
2018-05-10T02:15:01.205Z,98281.70
2018-05-10T02:17:28.737Z,98284.84
2018-05-10T02:19:56.333Z,98285.11
2018-05-10T02:22:24.018Z,98284.25
2018-05-10T02:24:51.591Z,98284.47
2018-05-10T02:27:19.118Z,98285.44
2018-05-10T02:29:46.742Z,98281.62
2018-05-10T02:32:14.300Z,98279.20
2018-05-10T02:34:41.950Z,98283.07
2018-05-10T02:37:09.521Z,98282.91
2018-05-10T02:39:37.139Z,98289.82
2018-05-10T02:42:04.754Z,98290.19
2018-05-10T02:44:32.307Z,98290.87
2018-05-10T02:46:59.910Z,98299.13
2018-05-10T02:49:27.461Z,98290.98
2018-05-10T02:51:55.085Z,98308.70
2018-05-10T02:54:22.644Z,98306.97
2018-05-10T02:56:50.217Z,98307.42
2018-05-10T02:59:17.748Z,98311.06
2018-05-10T03:01:45.426Z,98313.23
2018-05-10T03:04:12.978Z,98308.61
2018-05-10T03:06:40.648Z,98312.54
2018-05-10T03:09:08.204Z,98313.12
2018-05-10T03:11:35.880Z,98312.95
2018-05-10T03:14:03.482Z,98323.25
2018-05-10T03:16:31.061Z,98309.90
2018-05-10T03:18:58.586Z,98312.19
2018-05-10T03:21:26.166Z,98307.90
2018-05-10T03:23:53.768Z,98305.03
2018-05-10T03:26:21.392Z,98303.46
2018-05-10T03:28:48.922Z,98308.73
2018-05-10T03:31:16.851Z,98303.19
2018-05-10T03:33:44.374Z,98306.70
2018-05-10T03:36:12.401Z,98311.51
2018-05-10T03:38:39.958Z,98317.02
2018-05-10T03:41:07.557Z,98323.80
2018-05-10T03:43:35.109Z,98325.38
2018-05-10T03:46:02.685Z,98327.95
2018-05-10T03:48:30.212Z,98328.47
2018-05-10T03:50:57.794Z,98323.76
2018-05-10T03:53:25.414Z,98325.60
2018-05-10T03:55:52.999Z,98332.08
2018-05-10T03:58:20.626Z,98342.80
2018-05-10T04:00:48.287Z,98341.81
2018-05-10T04:03:51.379Z,98351.33
2018-05-10T04:06:30.710Z,98350.77
2018-05-10T04:09:10.233Z,98354.97
2018-05-10T04:11:37.931Z,98366.48
2018-05-10T04:14:05.486Z,98375.88
2018-05-10T04:16:33.037Z,98378.27
2018-05-10T04:19:00.597Z,98378.37
2018-05-10T04:21:28.256Z,98378.19
2018-05-10T04:23:55.817Z,98386.45
2018-05-10T04:26:23.376Z,98396.86
2018-05-10T04:28:51.026Z,98404.12
2018-05-10T04:31:18.674Z,98412.86
2018-05-10T04:33:46.262Z,98410.00
2018-05-10T04:36:14.125Z,98417.73
2018-05-10T04:38:41.803Z,98417.72
2018-05-10T04:41:09.362Z,98419.89
2018-05-10T04:43:36.967Z,98425.38
2018-05-10T04:46:04.516Z,98428.09
2018-05-10T04:48:32.069Z,98425.56
2018-05-10T04:50:59.602Z,98429.56
2018-05-10T04:53:27.176Z,98434.03
2018-05-10T04:55:54.771Z,98432.42
2018-05-10T04:58:22.377Z,98442.23
2018-05-10T05:00:49.906Z,98443.09
2018-05-10T05:03:17.646Z,98437.77
2018-05-10T05:05:45.257Z,98455.80
2018-05-10T05:08:13.514Z,98457.38
2018-05-10T05:10:41.192Z,98468.45
2018-05-10T05:13:08.853Z,98457.77
2018-05-10T05:15:36.392Z,98459.56
2018-05-10T05:18:03.970Z,98466.06
2018-05-10T05:20:31.498Z,98463.69
2018-05-10T05:22:59.077Z,98474.13
2018-05-10T05:25:26.601Z,98466.45
2018-05-10T05:27:54.156Z,98477.33
2018-05-10T05:30:21.682Z,98493.45
2018-05-10T05:32:49.274Z,98501.16
2018-05-10T05:35:16.809Z,98504.59
2018-05-10T05:37:44.382Z,98517.51
2018-05-10T05:40:11.942Z,98523.75
2018-05-10T05:42:39.515Z,98522.02
2018-05-10T05:45:07.036Z,98541.75
2018-05-10T05:47:34.620Z,98538.45
2018-05-10T05:50:05.173Z,98541.88
2018-05-10T05:52:34.724Z,98546.93
2018-05-10T05:55:03.772Z,98553.48
2018-05-10T05:57:31.258Z,98549.08
2018-05-10T05:59:58.831Z,98554.84
2018-05-10T06:02:26.495Z,98548.49
2018-05-10T06:04:54.566Z,98550.08
2018-05-10T06:07:22.091Z,98549.81
2018-05-10T06:09:49.639Z,98556.47
2018-05-10T06:12:17.171Z,98565.35
2018-05-10T06:14:44.805Z,98562.29
2018-05-10T06:17:12.773Z,98564.27
2018-05-10T06:19:40.549Z,98560.63
2018-05-10T06:22:08.202Z,98569.79
2018-05-10T06:24:35.754Z,98579.48
2018-05-10T06:27:03.318Z,98580.42
2018-05-10T06:29:30.907Z,98585.63
2018-05-10T06:31:58.541Z,98593.89
2018-05-10T06:34:26.193Z,98600.58
2018-05-10T06:36:53.714Z,98601.45
2018-05-10T06:39:21.321Z,98606.99
2018-05-10T06:41:48.845Z,98608.20
2018-05-10T06:44:16.398Z,98608.92
2018-05-10T06:46:44.032Z,98611.22
2018-05-10T06:49:11.630Z,98606.53
2018-05-10T06:51:39.178Z,98615.61
2018-05-10T06:54:06.886Z,98627.25
2018-05-10T06:56:34.443Z,98624.38
2018-05-10T06:59:02.015Z,98624.95
2018-05-10T07:01:29.562Z,98634.69
2018-05-10T07:03:57.240Z,98646.10
2018-05-10T07:06:24.770Z,98645.33
2018-05-10T07:08:52.345Z,98649.05
2018-05-10T07:11:19.869Z,98666.09
2018-05-10T07:13:47.398Z,98661.65
2018-05-10T07:16:16.700Z,98654.02
2018-05-10T07:18:44.322Z,98670.58
2018-05-10T07:21:11.985Z,98667.52
2018-05-10T07:23:40.006Z,98675.35
2018-05-10T07:26:07.561Z,98678.11
2018-05-10T07:28:35.138Z,98676.00
2018-05-10T07:31:02.714Z,98680.27
2018-05-10T07:33:30.243Z,98683.90
2018-05-10T07:35:57.857Z,98685.19
2018-05-10T07:38:25.413Z,98679.05
2018-05-10T07:40:52.977Z,98680.38
2018-05-10T07:43:20.525Z,98691.22
2018-05-10T07:45:48.078Z,98682.81
2018-05-10T07:48:15.652Z,98676.69
2018-05-10T07:50:43.258Z,98687.85
2018-05-10T07:53:10.895Z,98688.89
2018-05-10T07:55:38.437Z,98698.78
2018-05-10T07:58:05.966Z,98696.80
2018-05-10T08:00:33.858Z,98704.23
2018-05-10T08:03:01.419Z,98700.11
2018-05-10T08:05:29.121Z,98700.26
2018-05-10T08:07:57.096Z,98701.09
2018-05-10T08:10:24.814Z,98705.05
2018-05-10T08:12:52.898Z,98710.07
2018-05-10T08:15:21.153Z,98719.69
2018-05-10T08:17:48.982Z,98725.27
2018-05-10T08:20:16.916Z,98737.16
2018-05-10T08:22:44.967Z,98737.03
2018-05-10T08:25:12.564Z,98747.05
2018-05-10T08:27:56.066Z,98744.05
2018-05-10T08:30:23.941Z,98755.13
2018-05-10T08:32:51.701Z,98762.48
2018-05-10T08:35:19.342Z,98756.92
2018-05-10T08:37:47.273Z,98764.95
2018-05-10T08:40:16.047Z,98776.63
2018-05-10T08:42:43.578Z,98778.17
2018-05-10T08:45:11.207Z,98781.51
2018-05-10T08:47:39.097Z,98787.35
2018-05-10T08:50:06.687Z,98793.73
2018-05-10T08:52:34.868Z,98788.78
2018-05-10T08:55:02.567Z,98795.72
2018-05-10T08:57:30.646Z,98800.04
2018-05-10T08:59:58.238Z,98801.38
2018-05-10T09:02:26.203Z,98805.20
2018-05-10T09:04:54.479Z,98805.69
2018-05-10T09:07:22.425Z,98812.70
2018-05-10T09:09:50.747Z,98812.64
2018-05-10T09:12:18.798Z,98825.91
2018-05-10T09:14:50.159Z,98824.43
2018-05-10T09:17:18.310Z,98831.92
2018-05-10T09:19:47.060Z,98820.66
2018-05-10T09:22:14.914Z,98845.48
2018-05-10T09:24:43.035Z,98851.92
2018-05-10T09:27:10.868Z,98850.57
2018-05-10T09:29:39.244Z,98871.22
2018-05-10T09:32:07.773Z,98866.77
2018-05-10T09:34:35.426Z,98868.41
2018-05-10T09:37:03.086Z,98879.72
2018-05-10T09:39:31.002Z,98878.56
2018-05-10T09:41:59.058Z,98891.31
2018-05-10T09:44:26.649Z,98898.67
2018-05-10T09:46:54.963Z,98896.63
2018-05-10T09:49:22.489Z,98909.36
2018-05-10T09:51:50.374Z,98903.51
2018-05-10T09:54:17.970Z,98907.84
2018-05-10T09:56:46.545Z,98926.78
2018-05-10T09:59:15.410Z,98928.34
2018-05-10T10:01:42.998Z,98931.45
2018-05-10T10:04:10.756Z,98934.19
2018-05-10T10:06:38.409Z,98937.39
2018-05-10T10:09:05.967Z,98948.64
2018-05-10T10:11:33.654Z,98946.06
2018-05-10T10:14:01.295Z,98959.14
2018-05-10T10:16:28.886Z,98956.61
2018-05-10T10:18:56.616Z,98964.69
2018-05-10T10:21:24.166Z,98967.75
2018-05-10T10:23:51.736Z,98969.37
2018-05-10T10:26:19.295Z,98984.31
2018-05-10T10:28:49.474Z,98991.91
2018-05-10T10:31:17.601Z,98984.40
2018-05-10T10:33:45.146Z,98991.31
2018-05-10T10:36:13.024Z,98997.91
2018-05-10T10:38:41.458Z,98995.58
2018-05-10T10:41:10.049Z,99002.56
2018-05-10T10:43:38.455Z,99004.66
2018-05-10T10:46:06.016Z,99011.69
2018-05-10T10:48:34.396Z,99016.73
2018-05-10T10:51:02.365Z,99015.88
2018-05-10T10:53:30.030Z,99013.28
2018-05-10T10:55:58.611Z,99020.36
2018-05-10T10:58:27.249Z,99015.22
2018-05-10T11:00:55.428Z,99015.05
2018-05-10T11:03:23.629Z,99022.80
2018-05-10T11:05:51.554Z,99033.67
2018-05-10T11:08:20.234Z,99031.50
2018-05-10T11:10:47.758Z,99023.58
2018-05-10T11:13:15.480Z,99038.44
2018-05-10T11:15:42.978Z,99036.36
2018-05-10T11:18:10.620Z,99035.83
2018-05-10T11:20:38.198Z,99044.38
2018-05-10T11:23:05.749Z,99043.11
2018-05-10T11:25:33.326Z,99043.23
2018-05-10T11:28:00.876Z,99057.47
2018-05-10T11:35:29.195Z,99060.06
2018-05-10T11:37:56.851Z,99068.70
2018-05-10T11:40:24.385Z,99079.67
2018-05-10T11:42:51.940Z,99071.19
2018-05-10T11:45:19.539Z,99078.78
2018-05-10T11:47:47.169Z,99077.45
2018-05-10T11:50:14.717Z,99080.84
2018-05-10T11:52:42.309Z,99094.14
2018-05-10T11:55:09.868Z,99085.80
2018-05-10T11:57:37.426Z,99087.70
2018-05-10T12:00:04.953Z,99086.44
2018-05-10T12:02:32.579Z,99093.61
2018-05-10T12:05:00.110Z,99100.03
2018-05-10T12:07:27.774Z,99098.33
2018-05-10T12:09:55.315Z,99103.22
2018-05-10T12:12:24.173Z,99106.70
2018-05-10T12:14:52.392Z,99103.18
2018-05-10T12:17:20.470Z,99110.73
2018-05-10T12:19:48.169Z,99102.94
2018-05-10T12:22:16.724Z,99120.45
2018-05-10T12:24:44.783Z,99126.02
2018-05-10T12:27:12.753Z,99133.84
2018-05-10T12:29:40.497Z,99128.59
2018-05-10T12:32:08.837Z,99136.73
2018-05-10T12:34:36.387Z,99131.39
2018-05-10T12:37:04.613Z,99140.88
2018-05-10T12:39:32.221Z,99151.25
2018-05-10T12:41:59.952Z,99137.52
2018-05-10T12:44:27.946Z,99144.49
2018-05-10T12:46:56.821Z,99150.89
2018-05-10T12:49:24.475Z,99147.63
2018-05-10T12:51:52.626Z,99156.07
2018-05-10T12:54:20.929Z,99143.62
2018-05-10T12:56:49.005Z,99152.77
2018-05-10T12:59:16.967Z,99160.75
2018-05-10T13:01:44.521Z,99154.94
2018-05-10T13:04:12.607Z,99162.51
2018-05-10T13:06:40.264Z,99161.73
2018-05-10T13:09:07.840Z,99170.74
2018-05-10T13:11:35.488Z,99179.51
2018-05-10T13:14:03.243Z,99175.25
2018-05-10T13:16:30.836Z,99174.42
2018-05-10T13:18:58.527Z,99177.30
2018-05-10T13:21:26.052Z,99178.13
2018-05-10T13:23:54.096Z,99180.00
2018-05-10T13:26:22.003Z,99179.64
2018-05-10T13:28:50.003Z,99180.08
2018-05-10T13:31:17.514Z,99181.16
2018-05-10T13:33:45.289Z,99173.91
2018-05-10T13:36:13.336Z,99180.44
2018-05-10T13:38:41.215Z,99177.92
2018-05-10T13:41:08.895Z,99177.13
2018-05-10T13:43:36.798Z,99189.44
2018-05-10T13:46:04.500Z,99189.69
2018-05-10T13:48:32.354Z,99189.98
2018-05-10T13:51:00.426Z,99194.74
2018-05-10T13:53:28.110Z,99194.82
2018-05-10T13:55:56.061Z,99192.86
2018-05-10T13:58:24.260Z,99194.28
2018-05-10T14:00:52.068Z,99198.75
2018-05-10T14:03:19.665Z,99203.38
2018-05-10T14:05:47.446Z,99197.70
2018-05-10T14:08:16.491Z,99203.28
2018-05-10T14:10:47.598Z,99208.86
2018-05-10T14:13:15.723Z,99208.17
2018-05-10T14:15:43.746Z,99199.37
2018-05-10T14:18:12.428Z,99199.52
2018-05-10T14:20:40.340Z,99195.59
2018-05-10T14:23:07.883Z,99204.58
2018-05-10T14:25:36.164Z,99202.57
2018-05-10T14:28:03.854Z,99209.61
2018-05-10T14:30:32.140Z,99208.63
2018-05-10T14:32:59.692Z,99215.37
2018-05-10T14:35:27.247Z,99220.62
2018-05-10T14:37:54.807Z,99212.47
2018-05-10T14:40:22.779Z,99222.65
2018-05-10T14:42:50.406Z,99224.89
2018-05-10T14:45:18.378Z,99205.17
2018-05-10T14:47:45.929Z,99217.82
2018-05-10T14:50:14.249Z,99227.20
2018-05-10T14:55:23.833Z,99232.34
2018-05-10T14:57:52.386Z,99233.23
2018-05-10T15:00:19.967Z,99218.08
2018-05-10T15:02:47.822Z,99228.42
2018-05-10T15:05:15.770Z,99219.39
2018-05-10T15:07:43.945Z,99216.74
2018-05-10T15:10:12.122Z,99231.70
2018-05-10T15:12:41.459Z,99226.32
2018-05-10T15:15:09.296Z,99232.27
2018-05-10T15:17:36.911Z,99237.57
2018-05-10T15:20:04.836Z,99243.38
2018-05-10T15:22:32.408Z,99255.58
2018-05-10T15:25:00.018Z,99249.69
2018-05-10T15:27:27.602Z,99259.59
2018-05-10T15:29:55.243Z,99258.81
2018-05-10T15:32:23.144Z,99251.03
2018-05-10T15:34:51.970Z,99269.41
2018-05-10T15:37:20.046Z,99273.41
2018-05-10T15:39:47.961Z,99279.88
2018-05-10T15:42:15.766Z,99275.52
2018-05-10T15:44:43.857Z,99268.38
2018-05-10T15:47:12.914Z,99272.88
2018-05-10T15:49:43.779Z,99274.67
2018-05-10T15:52:12.061Z,99289.99
2018-05-10T15:54:39.611Z,99297.10
2018-05-10T15:57:07.436Z,99299.17
2018-05-10T15:59:35.300Z,99299.45
2018-05-10T16:02:02.973Z,99304.95
2018-05-10T16:04:31.313Z,99301.42
2018-05-10T16:06:59.002Z,99298.75
2018-05-10T16:09:27.080Z,99298.08
2018-05-10T16:11:54.679Z,99300.28
2018-05-10T16:14:22.295Z,99318.22
2018-05-10T16:16:50.786Z,99304.73
2018-05-10T16:19:18.387Z,99320.64
2018-05-10T16:21:45.963Z,99323.19
2018-05-10T16:24:14.068Z,99333.11
2018-05-10T16:26:41.614Z,99323.74
2018-05-10T16:29:09.198Z,99339.27
2018-05-10T16:31:36.851Z,99334.14
2018-05-10T16:34:04.513Z,99336.77
2018-05-10T16:36:32.175Z,99347.19
2018-05-10T16:38:59.837Z,99349.58
2018-05-10T16:41:28.010Z,99345.02
2018-05-10T16:43:55.569Z,99345.67
2018-05-10T16:46:24.484Z,99338.66
2018-05-10T16:48:52.428Z,99347.60
2018-05-10T16:51:20.091Z,99352.91
2018-05-10T16:53:48.221Z,99354.09
2018-05-10T16:56:16.189Z,99362.19
2018-05-10T16:58:43.725Z,99350.69
2018-05-10T17:01:11.354Z,99360.26
2018-05-10T17:03:42.022Z,99364.88
2018-05-10T17:06:10.043Z,99362.14
2018-05-10T17:08:38.153Z,99364.57
2018-05-10T17:11:06.062Z,99371.67
2018-05-10T17:13:33.760Z,99377.40
2018-05-10T17:16:01.609Z,99376.04
2018-05-10T17:18:29.320Z,99374.50
2018-05-10T17:20:59.820Z,99385.17
2018-05-10T17:23:30.903Z,99382.13
2018-05-10T17:25:58.567Z,99384.83
2018-05-10T17:28:27.297Z,99379.59
2018-05-10T17:30:54.960Z,99392.45
2018-05-10T17:33:22.449Z,99395.38
2018-05-10T17:35:50.457Z,99386.63
2018-05-10T17:38:19.227Z,99397.84
2018-05-10T17:40:46.913Z,99397.03
2018-05-10T17:43:14.518Z,99393.23
2018-05-10T17:45:42.479Z,99394.06
2018-05-10T17:48:10.431Z,99402.02
2018-05-10T17:50:37.970Z,99419.14
2018-05-10T17:53:06.270Z,99403.80
2018-05-10T17:55:33.944Z,99416.79
2018-05-10T17:58:01.605Z,99426.38
2018-05-10T18:00:29.648Z,99419.67
2018-05-10T18:02:57.207Z,99433.36
2018-05-10T18:05:24.731Z,99435.13
2018-05-10T18:07:53.381Z,99440.13
2018-05-10T18:10:20.986Z,99446.94
2018-05-10T18:12:48.605Z,99445.44
2018-05-10T18:15:16.142Z,99451.64
2018-05-10T18:17:44.565Z,99452.80
2018-05-10T18:20:12.496Z,99455.93
2018-05-10T18:22:40.119Z,99463.14
2018-05-10T18:25:07.849Z,99466.69
2018-05-10T18:27:36.474Z,99476.52
2018-05-10T18:30:04.388Z,99480.51
2018-05-10T18:32:32.058Z,99480.70
2018-05-10T18:35:00.528Z,99487.39
2018-05-10T18:37:28.191Z,99497.20
2018-05-10T18:39:55.713Z,99497.36
2018-05-10T18:42:23.266Z,99497.64
2018-05-10T18:44:50.817Z,99497.88
2018-05-10T18:47:18.429Z,99504.50
2018-05-10T18:49:45.945Z,99504.98
2018-05-10T18:52:13.501Z,99513.81
2018-05-10T18:54:41.068Z,99518.14
2018-05-10T18:57:08.604Z,99516.64
2018-05-10T18:59:36.133Z,99518.34
2018-05-10T19:02:03.686Z,99519.59
2018-05-10T19:04:31.208Z,99522.91
2018-05-10T19:07:01.736Z,99524.23
2018-05-10T19:09:29.489Z,99531.03
2018-05-10T19:11:57.061Z,99533.91
2018-05-10T19:14:24.594Z,99538.33
2018-05-10T19:16:52.215Z,99543.44
2018-05-10T19:19:20.295Z,99549.72
2018-05-10T19:21:47.817Z,99552.55
2018-05-10T19:24:15.389Z,99556.14
2018-05-10T19:26:42.968Z,99563.89
2018-05-10T19:29:10.577Z,99563.41
2018-05-10T19:31:38.062Z,99568.28
2018-05-10T19:34:05.612Z,99576.98
2018-05-10T19:36:33.139Z,99578.76
2018-05-10T19:39:00.687Z,99576.45
2018-05-10T19:41:28.220Z,99575.50
2018-05-10T19:43:55.795Z,99580.55
2018-05-10T19:46:25.501Z,99584.03
2018-05-10T19:48:53.049Z,99593.07
2018-05-10T19:51:20.612Z,99588.16
2018-05-10T19:53:48.180Z,99598.84
2018-05-10T19:56:15.705Z,99599.60
2018-05-10T19:58:43.265Z,99604.05
2018-05-10T20:01:10.847Z,99607.46
2018-05-10T20:03:38.441Z,99608.94
2018-05-10T20:06:05.967Z,99610.17
2018-05-10T20:08:33.681Z,99609.86
2018-05-10T20:11:01.197Z,99611.86
2018-05-10T20:13:28.850Z,99617.26
2018-05-10T20:15:56.408Z,99617.38
2018-05-10T20:18:23.978Z,99627.08
2018-05-10T20:20:51.526Z,99624.25
2018-05-10T20:23:19.110Z,99631.64
2018-05-10T20:25:46.658Z,99633.16
2018-05-10T20:28:14.386Z,99632.28
2018-05-10T20:30:41.863Z,99636.93
2018-05-10T20:33:09.530Z,99637.39
2018-05-10T20:35:37.269Z,99630.20
2018-05-10T20:38:04.841Z,99637.58
2018-05-10T20:40:32.367Z,99637.11
2018-05-10T20:42:59.954Z,99641.80
2018-05-10T20:45:27.479Z,99641.76
2018-05-10T20:47:55.029Z,99640.50
2018-05-10T20:50:22.662Z,99649.29
2018-05-10T20:52:51.086Z,99649.59
2018-05-10T20:55:18.881Z,99644.97
2018-05-10T20:57:46.457Z,99647.53
2018-05-10T21:00:14.014Z,99647.30
2018-05-10T21:02:41.566Z,99639.64
2018-05-10T21:05:09.144Z,99643.73
2018-05-10T21:07:36.798Z,99640.77
2018-05-10T21:10:04.475Z,99641.52
2018-05-10T21:12:42.871Z,99645.66
2018-05-10T21:15:10.452Z,99641.30
2018-05-10T21:17:38.000Z,99652.63
2018-05-10T21:20:05.650Z,99644.77
2018-05-10T21:22:33.213Z,99663.14
2018-05-10T21:25:00.875Z,99658.47
2018-05-10T21:27:28.435Z,99659.27
2018-05-10T21:29:56.097Z,99665.37
2018-05-10T21:32:23.657Z,99669.78
2018-05-10T21:34:51.250Z,99666.60
2018-05-10T21:37:18.777Z,99673.60
2018-05-10T21:39:46.355Z,99669.63
2018-05-10T21:42:13.877Z,99669.67
2018-05-10T21:44:41.614Z,99674.05
2018-05-10T21:47:09.231Z,99670.80
2018-05-10T21:49:48.553Z,99676.53
2018-05-10T21:52:16.091Z,99676.99
2018-05-10T21:54:43.683Z,99677.17
2018-05-10T21:57:11.217Z,99679.36
2018-05-10T21:59:38.794Z,99676.02
2018-05-10T22:02:06.351Z,99672.14
2018-05-10T22:04:33.914Z,99675.23
2018-05-10T22:07:01.482Z,99681.69
2018-05-10T22:09:29.073Z,99678.88
2018-05-10T22:11:56.671Z,99685.78
2018-05-10T22:14:24.233Z,99676.69
2018-05-10T22:16:51.811Z,99677.45
2018-05-10T22:19:19.474Z,99679.19
2018-05-10T22:21:47.033Z,99675.16
2018-05-10T22:24:14.615Z,99680.89
2018-05-10T22:26:44.837Z,99684.42
2018-05-10T22:29:13.397Z,99686.79
2018-05-10T22:31:41.372Z,99685.67
2018-05-10T22:34:09.950Z,99685.16
2018-05-10T22:36:38.738Z,99685.67
2018-05-10T22:39:06.503Z,99682.63
2018-05-10T22:41:34.840Z,99694.55
2018-05-10T22:44:03.705Z,99696.87
2018-05-10T22:46:32.557Z,99692.27
2018-05-10T22:49:01.350Z,99702.98
2018-05-10T22:51:29.944Z,99707.47
2018-05-10T22:53:57.901Z,99697.70
2018-05-10T22:56:25.779Z,99699.60
2018-05-10T22:58:55.378Z,99682.18
2018-05-10T23:01:25.496Z,99704.39
2018-05-10T23:03:53.263Z,99702.25
2018-05-10T23:06:21.552Z,99695.87
2018-05-10T23:08:49.084Z,99692.11
2018-05-10T23:11:17.958Z,99689.55
2018-05-10T23:13:48.820Z,99688.20
2018-05-10T23:16:17.732Z,99683.94
2018-05-10T23:18:45.973Z,99685.94
2018-05-10T23:21:13.870Z,99687.22
2018-05-10T23:23:41.468Z,99685.02
2018-05-10T23:26:09.076Z,99687.31
2018-05-10T23:28:37.972Z,99685.52
2018-05-10T23:31:05.597Z,99688.59
2018-05-10T23:33:34.827Z,99685.61
2018-05-10T23:36:03.205Z,99687.38
2018-05-10T23:38:30.906Z,99681.89
2018-05-10T23:40:59.044Z,99684.44
2018-05-10T23:43:31.285Z,99681.09
2018-05-10T23:45:59.897Z,99687.52
2018-05-10T23:48:28.200Z,99689.92
2018-05-10T23:50:55.745Z,99682.63
2018-05-10T23:53:23.802Z,99686.58
2018-05-10T23:55:51.671Z,99686.45
2018-05-10T23:58:19.754Z,99677.81
